Time;durP1;ratioP1;P1;durP2;ratioP2;P2;SDS_P1;SDS_P2;PMS_P1;PMS_P2;Temp;Humidity;BMP_temperature;BMP_pressure;BME280_temperature;BME280_humidity;BME280_pressure;Samples;Min_cycle;Max_cycle;Signal;HPM_P1;HPM_P2
2022/12/28 00:01:58;;;;;;;7.50;4.60;;;;;;;;;;5010903;28;20193;-79
2022/12/28 00:04:23;;;;;;;8.93;4.10;;;;;;;;;;5010400;28;20178;-79
2022/12/28 00:06:49;;;;;;;6.70;4.67;;;;;;;;;;5012595;28;20210;-79
2022/12/28 00:09:14;;;;;;;8.13;4.43;;;;;;;;;;5009150;28;20190;-80
2022/12/28 00:11:40;;;;;;;9.70;4.63;;;;;;;;;;5010816;28;20182;-80
2022/12/28 00:14:05;;;;;;;9.27;4.83;;;;;;;;;;5012320;28;20178;-79
2022/12/28 00:16:34;;;;;;;7.60;4.03;;;;;;;;;;5031746;22;20279;-73
2022/12/28 00:19:00;;;;;;;9.17;4.33;;;;;;;;;;5035014;28;20277;-73
2022/12/28 00:21:26;;;;;;;8.40;4.57;;;;;;;;;;5017112;28;20190;-73
2022/12/28 00:23:52;;;;;;;7.37;4.00;;;;;;;;;;5019573;28;20182;-73
2022/12/28 00:26:18;;;;;;;6.80;4.37;;;;;;;;;;5020250;28;20210;-73
2022/12/28 00:28:43;;;;;;;7.07;4.40;;;;;;;;;;5017911;28;20593;-73
2022/12/28 00:31:08;;;;;;;9.47;4.77;;;;;;;;;;5016867;28;20189;-73
2022/12/28 00:33:33;;;;;;;8.03;4.10;;;;;;;;;;5017883;28;20261;-73
2022/12/28 00:36:00;;;;;;;9.53;5.00;;;;;;;;;;5020105;28;20394;-73
2022/12/28 00:38:25;;;;;;;12.13;5.33;;;;;;;;;;5019637;28;20188;-73
2022/12/28 00:40:51;;;;;;;7.03;4.17;;;;;;;;;;5017839;28;20175;-73
2022/12/28 00:43:16;;;;;;;5.57;3.83;;;;;;;;;;5019091;28;20312;-73
2022/12/28 00:45:45;;;;;;;11.13;5.27;;;;;;;;;;5016888;28;20206;-73
2022/12/28 00:48:11;;;;;;;9.33;5.57;;;;;;;;;;5018000;28;20214;-72
2022/12/28 00:50:36;;;;;;;11.47;5.47;;;;;;;;;;5019078;28;20349;-73
2022/12/28 00:53:01;;;;;;;9.73;5.57;;;;;;;;;;5024610;28;20275;-73
2022/12/28 00:55:26;;;;;;;8.17;4.77;;;;;;;;;;5022720;28;20281;-73
2022/12/28 00:57:51;;;;;;;8.80;4.37;;;;;;;;;;5023094;28;20182;-73
2022/12/28 01:00:17;;;;;;;8.17;5.13;;;;;;;;;;5024546;28;20178;-73
2022/12/28 01:02:42;;;;;;;9.47;4.90;;;;;;;;;;5022380;28;20200;-73
2022/12/28 01:05:07;;;;;;;7.13;4.87;;;;;;;;;;5021023;28;20194;-73
2022/12/28 01:07:33;;;;;;;7.00;4.90;;;;;;;;;;5019900;28;20260;-73
2022/12/28 01:09:58;;;;;;;6.87;4.53;;;;;;;;;;5023169;28;20171;-74
2022/12/28 01:12:23;;;;;;;7.60;5.13;;;;;;;;;;5017010;28;20182;-73
2022/12/28 01:14:48;;;;;;;9.47;4.90;;;;;;;;;;5023528;28;20181;-74
2022/12/28 01:17:13;;;;;;;9.07;5.07;;;;;;;;;;5022529;28;20272;-74
2022/12/28 01:19:39;;;;;;;6.87;5.37;;;;;;;;;;5021900;28;20265;-73
2022/12/28 01:22:04;;;;;;;8.77;5.20;;;;;;;;;;5016855;28;20196;-74
2022/12/28 01:24:29;;;;;;;5.87;4.97;;;;;;;;;;5017164;28;20277;-71
2022/12/28 01:26:54;;;;;;;8.33;5.40;;;;;;;;;;5021836;28;21385;-71
2022/12/28 01:29:19;;;;;;;7.47;4.93;;;;;;;;;;5022121;28;20253;-71
2022/12/28 01:31:44;;;;;;;5.27;4.17;;;;;;;;;;5020376;28;20182;-71
2022/12/28 01:34:10;;;;;;;7.00;4.93;;;;;;;;;;5022529;28;20193;-73
2022/12/28 01:36:35;;;;;;;8.83;5.83;;;;;;;;;;5020853;28;20653;-71
2022/12/28 01:39:02;;;;;;;9.03;5.13;;;;;;;;;;5017165;28;20193;-74
2022/12/28 01:41:28;;;;;;;7.17;5.10;;;;;;;;;;5020612;28;20175;-71
2022/12/28 01:43:53;;;;;;;7.43;4.40;;;;;;;;;;5022266;28;20193;-74
2022/12/28 01:46:23;;;;;;;6.70;4.83;;;;;;;;;;5021647;28;20198;-74
2022/12/28 01:48:58;;;;;;;8.73;4.60;;;;;;;;;;5022597;28;20178;-73
2022/12/28 01:51:23;;;;;;;6.73;4.20;;;;;;;;;;5019046;28;20186;-73
2022/12/28 01:53:50;;;;;;;10.87;5.50;;;;;;;;;;5023560;28;20551;-74
2022/12/28 01:56:15;;;;;;;8.87;4.57;;;;;;;;;;5017800;28;20206;-71
2022/12/28 01:58:40;;;;;;;9.43;5.90;;;;;;;;;;5028238;28;20189;-74
2022/12/28 02:01:06;;;;;;;27.47;5.67;;;;;;;;;;5027526;28;20193;-73
2022/12/28 02:03:32;;;;;;;8.47;4.67;;;;;;;;;;5026974;28;20174;-72
2022/12/28 02:05:59;;;;;;;6.37;4.57;;;;;;;;;;5036000;28;20673;-72
2022/12/28 02:08:43;;;;;;;7.83;5.17;;;;;;;;;;5036082;28;20182;-72
2022/12/28 02:11:11;;;;;;;6.90;5.77;;;;;;;;;;5027197;28;20388;-72
2022/12/28 02:13:36;;;;;;;8.63;5.13;;;;;;;;;;5021842;28;20582;-72
2022/12/28 02:16:04;;;;;;;9.47;5.73;;;;;;;;;;5022266;28;20217;-72
2022/12/28 02:18:29;;;;;;;8.97;5.70;;;;;;;;;;5025658;28;20263;-71
2022/12/28 02:21:13;;;;;;;8.83;5.00;;;;;;;;;;5021084;28;20205;-72
2022/12/28 02:23:50;;;;;;;9.17;4.63;;;;;;;;;;5023530;28;20178;-72
2022/12/28 02:26:34;;;;;;;9.37;4.97;;;;;;;;;;5019771;28;20778;-72
2022/12/28 02:29:05;;;;;;;6.30;5.17;;;;;;;;;;5019584;28;20217;-72
2022/12/28 02:31:38;;;;;;;7.77;6.10;;;;;;;;;;5027097;28;20693;-72
2022/12/28 02:34:07;;;;;;;8.47;6.33;;;;;;;;;;5024992;28;20270;-72
2022/12/28 02:36:35;;;;;;;9.63;6.47;;;;;;;;;;5020781;28;20691;-72
2022/12/28 02:39:22;;;;;;;9.33;6.50;;;;;;;;;;5021801;28;20244;-72
2022/12/28 02:41:47;;;;;;;12.90;7.23;;;;;;;;;;5017601;28;20182;-72
2022/12/28 02:50:04;;;;;;;8.20;6.40;;;;;;;;;;5021922;28;20722;-72
2022/12/28 02:52:45;;;;;;;9.17;5.70;;;;;;;;;;5022158;28;20269;-72
2022/12/28 02:57:56;;;;;;;9.63;6.80;;;;;;;;;;5022096;28;20208;-73
2022/12/28 03:00:24;;;;;;;8.97;6.67;;;;;;;;;;5018558;28;20656;-73
2022/12/28 03:03:08;;;;;;;12.43;7.20;;;;;;;;;;5020038;28;20321;-73
2022/12/28 03:09:12;;;;;;;10.43;7.13;;;;;;;;;;5029884;28;20193;-73
2022/12/28 03:12:00;;;;;;;9.47;6.90;;;;;;;;;;4991982;28;20190;-73
2022/12/28 03:14:27;;;;;;;11.30;7.07;;;;;;;;;;5008972;28;20170;-73
2022/12/28 03:33:26;;;;;;;9.00;7.27;;;;;;;;;;5029243;28;20640;-73
2022/12/28 03:35:58;;;;;;;10.70;7.40;;;;;;;;;;5029968;28;20213;-73
2022/12/28 03:38:27;;;;;;;9.17;7.27;;;;;;;;;;5029225;28;20190;-73
2022/12/28 03:40:56;;;;;;;11.43;7.23;;;;;;;;;;5027096;28;20578;-73
2022/12/28 03:43:43;;;;;;;10.43;6.70;;;;;;;;;;5034433;28;20197;-73
2022/12/28 03:46:18;;;;;;;9.13;6.30;;;;;;;;;;5027140;28;20190;-73
2022/12/28 03:48:44;;;;;;;8.27;6.57;;;;;;;;;;5028205;28;20470;-73
2022/12/28 03:51:11;;;;;;;10.33;6.00;;;;;;;;;;5029585;28;20439;-72
2022/12/28 03:53:38;;;;;;;9.43;6.57;;;;;;;;;;5030236;28;20174;-72
2022/12/28 03:56:04;;;;;;;8.80;6.60;;;;;;;;;;5024821;28;20243;-73
2022/12/28 03:58:29;;;;;;;9.40;6.27;;;;;;;;;;5031671;28;20302;-72
2022/12/28 04:00:55;;;;;;;10.53;6.73;;;;;;;;;;5026135;28;20204;-73
2022/12/28 04:03:20;;;;;;;7.73;6.10;;;;;;;;;;5029504;28;20553;-72
2022/12/28 04:05:45;;;;;;;8.93;5.93;;;;;;;;;;5029914;28;20206;-73
2022/12/28 04:08:10;;;;;;;9.27;5.80;;;;;;;;;;5036045;28;20200;-73
2022/12/28 04:10:35;;;;;;;11.33;7.13;;;;;;;;;;5026612;28;20178;-72
2022/12/28 04:13:00;;;;;;;9.40;7.63;;;;;;;;;;5030852;28;20679;-73
2022/12/28 04:15:26;;;;;;;9.10;6.97;;;;;;;;;;5033025;28;20233;-72
2022/12/28 04:17:51;;;;;;;9.83;7.07;;;;;;;;;;5031416;28;20182;-72
2022/12/28 04:20:16;;;;;;;10.23;6.33;;;;;;;;;;5031577;28;20239;-72
2022/12/28 04:22:41;;;;;;;7.30;5.97;;;;;;;;;;5029281;28;20628;-72
2022/12/28 04:25:07;;;;;;;10.10;7.30;;;;;;;;;;5031297;28;20232;-72
2022/12/28 04:27:32;;;;;;;9.90;7.13;;;;;;;;;;5036583;28;20210;-72
2022/12/28 04:29:57;;;;;;;10.50;6.20;;;;;;;;;;5035673;28;20201;-73
2022/12/28 04:32:22;;;;;;;7.93;7.10;;;;;;;;;;5031693;28;20652;-72
2022/12/28 04:34:47;;;;;;;8.30;6.40;;;;;;;;;;5034357;28;20170;-72
2022/12/28 04:37:13;;;;;;;9.20;6.20;;;;;;;;;;5035650;28;20202;-73
2022/12/28 04:39:38;;;;;;;9.33;5.37;;;;;;;;;;5034170;28;20174;-72
2022/12/28 04:42:03;;;;;;;7.73;5.63;;;;;;;;;;5032685;28;20167;-72
2022/12/28 04:44:28;;;;;;;6.17;5.13;;;;;;;;;;5032695;28;20313;-72
2022/12/28 04:46:53;;;;;;;7.20;5.43;;;;;;;;;;5032780;28;20289;-73
2022/12/28 04:49:18;;;;;;;7.63;5.67;;;;;;;;;;5037469;28;20223;-72
2022/12/28 04:51:44;;;;;;;9.53;6.17;;;;;;;;;;5032110;28;20174;-72
2022/12/28 04:54:11;;;;;;;9.13;5.10;;;;;;;;;;5031999;28;20518;-72
2022/12/28 04:56:36;;;;;;;5.83;5.23;;;;;;;;;;5035714;28;20210;-72
2022/12/28 04:59:01;;;;;;;7.23;5.67;;;;;;;;;;5034884;28;20729;-72
2022/12/28 05:01:26;;;;;;;6.33;5.33;;;;;;;;;;5031663;28;20178;-72
2022/12/28 05:03:52;;;;;;;7.30;5.03;;;;;;;;;;5033203;28;20185;-72
2022/12/28 05:06:20;;;;;;;6.77;4.87;;;;;;;;;;5029250;28;20280;-72
2022/12/28 05:08:45;;;;;;;8.17;4.73;;;;;;;;;;5034570;28;20166;-72
2022/12/28 05:11:13;;;;;;;5.03;4.33;;;;;;;;;;5033256;28;20233;-72
2022/12/28 05:13:38;;;;;;;5.80;3.97;;;;;;;;;;5033333;28;20175;-72
2022/12/28 05:16:07;;;;;;;7.17;4.70;;;;;;;;;;5033551;28;20209;-72
2022/12/28 05:18:33;;;;;;;5.03;4.03;;;;;;;;;;5032942;28;20171;-72
2022/12/28 05:20:59;;;;;;;8.07;3.93;;;;;;;;;;5033160;28;20182;-72
2022/12/28 05:23:25;;;;;;;7.50;4.00;;;;;;;;;;5034227;28;20209;-73
2022/12/28 05:25:53;;;;;;;6.83;4.00;;;;;;;;;;5034157;28;20226;-72
2022/12/28 05:28:18;;;;;;;6.90;3.77;;;;;;;;;;5031589;28;20226;-72
2022/12/28 05:30:43;;;;;;;4.93;3.57;;;;;;;;;;5034034;28;20206;-72
2022/12/28 05:33:08;;;;;;;6.20;4.13;;;;;;;;;;5034047;28;20194;-72
2022/12/28 05:35:34;;;;;;;5.97;3.60;;;;;;;;;;5033641;28;20221;-72
2022/12/28 05:37:59;;;;;;;5.67;4.00;;;;;;;;;;5033211;28;20174;-72
2022/12/28 05:40:24;;;;;;;4.90;4.20;;;;;;;;;;5032770;28;20181;-73
2022/12/28 05:42:49;;;;;;;4.80;4.30;;;;;;;;;;5032450;28;20174;-73
2022/12/28 05:45:14;;;;;;;5.10;4.33;;;;;;;;;;5033662;28;20710;-72
2022/12/28 05:47:40;;;;;;;4.20;3.63;;;;;;;;;;5033543;28;20210;-72
2022/12/28 05:50:05;;;;;;;5.50;3.73;;;;;;;;;;5031412;28;20174;-72
2022/12/28 05:52:31;;;;;;;5.80;4.03;;;;;;;;;;5033778;28;20527;-72
2022/12/28 05:54:56;;;;;;;5.10;4.43;;;;;;;;;;5034134;28;20179;-73
2022/12/28 05:57:21;;;;;;;5.97;4.10;;;;;;;;;;5027900;28;20192;-72
2022/12/28 05:59:47;;;;;;;7.17;4.30;;;;;;;;;;5031709;28;20179;-72
2022/12/28 06:02:12;;;;;;;4.23;3.83;;;;;;;;;;5031421;28;20178;-72
2022/12/28 06:04:37;;;;;;;6.03;4.33;;;;;;;;;;5032156;28;20178;-73
2022/12/28 06:07:02;;;;;;;5.20;3.60;;;;;;;;;;5038336;28;20675;-72
2022/12/28 06:09:27;;;;;;;4.70;4.13;;;;;;;;;;5031745;28;20219;-72
2022/12/28 06:11:53;;;;;;;5.40;4.07;;;;;;;;;;5030405;28;20182;-72
2022/12/28 06:14:18;;;;;;;4.43;3.63;;;;;;;;;;5030198;28;20182;-72
2022/12/28 06:16:44;;;;;;;4.60;3.60;;;;;;;;;;5028929;28;20703;-72
2022/12/28 06:19:10;;;;;;;4.00;3.17;;;;;;;;;;5033049;28;20178;-72
2022/12/28 06:21:37;;;;;;;4.17;3.20;;;;;;;;;;5032574;28;20272;-72
2022/12/28 06:24:03;;;;;;;4.07;2.80;;;;;;;;;;5031531;28;20178;-73
2022/12/28 06:26:29;;;;;;;4.37;3.97;;;;;;;;;;5032323;28;20324;-72
2022/12/28 06:28:54;;;;;;;4.37;2.77;;;;;;;;;;5033028;28;20547;-72
2022/12/28 06:31:24;;;;;;;4.93;2.93;;;;;;;;;;5031457;28;20185;-73
2022/12/28 06:33:52;;;;;;;4.23;2.83;;;;;;;;;;5032465;28;20189;-73
2022/12/28 06:36:21;;;;;;;3.53;3.20;;;;;;;;;;5023121;28;20233;-72
2022/12/28 06:38:51;;;;;;;5.10;2.70;;;;;;;;;;5033019;28;20563;-73
2022/12/28 06:41:17;;;;;;;3.97;2.90;;;;;;;;;;5032345;28;20171;-73
2022/12/28 06:43:42;;;;;;;5.67;2.83;;;;;;;;;;5031266;28;20228;-72
2022/12/28 06:46:08;;;;;;;4.33;2.60;;;;;;;;;;5031294;28;20230;-72
2022/12/28 06:48:34;;;;;;;3.07;2.47;;;;;;;;;;5031894;28;20183;-72
2022/12/28 06:51:00;;;;;;;4.53;2.53;;;;;;;;;;5039333;28;20652;-72
2022/12/28 06:53:30;;;;;;;5.80;3.17;;;;;;;;;;5032557;28;20175;-72
2022/12/28 06:55:56;;;;;;;3.67;2.60;;;;;;;;;;5034780;28;20205;-72
2022/12/28 06:58:22;;;;;;;3.97;2.60;;;;;;;;;;5034993;28;20186;-72
2022/12/28 07:00:47;;;;;;;3.17;2.70;;;;;;;;;;5023246;28;20200;-72
2022/12/28 07:03:12;;;;;;;4.33;3.07;;;;;;;;;;5027483;28;20596;-73
2022/12/28 07:05:37;;;;;;;4.40;2.80;;;;;;;;;;5033038;28;20194;-74
2022/12/28 07:08:02;;;;;;;3.13;2.73;;;;;;;;;;5024456;28;20194;-72
2022/12/28 07:10:28;;;;;;;7.07;3.37;;;;;;;;;;5035082;28;20174;-72
2022/12/28 07:12:53;;;;;;;3.47;2.67;;;;;;;;;;5031311;28;20167;-71
2022/12/28 07:15:18;;;;;;;6.73;2.93;;;;;;;;;;5030929;28;20217;-72
2022/12/28 07:17:43;;;;;;;2.87;2.67;;;;;;;;;;5031866;28;20571;-72
2022/12/28 07:20:09;;;;;;;3.40;2.80;;;;;;;;;;5031996;28;20244;-72
2022/12/28 07:22:34;;;;;;;3.13;2.83;;;;;;;;;;5030018;28;20209;-72
2022/12/28 07:24:59;;;;;;;3.43;2.63;;;;;;;;;;5027057;28;20202;-72
2022/12/28 07:27:24;;;;;;;4.67;2.97;;;;;;;;;;5028910;28;20563;-72
2022/12/28 07:29:49;;;;;;;3.50;3.10;;;;;;;;;;5029856;28;20185;-72
2022/12/28 07:32:14;;;;;;;2.80;2.60;;;;;;;;;;5031659;28;20171;-71
2022/12/28 07:34:40;;;;;;;4.17;3.10;;;;;;;;;;5031248;28;20179;-72
2022/12/28 07:37:05;;;;;;;6.27;2.40;;;;;;;;;;5032718;28;20683;-71
2022/12/28 07:39:30;;;;;;;4.73;2.60;;;;;;;;;;5031599;28;20265;-71
2022/12/28 07:41:55;;;;;;;3.73;2.80;;;;;;;;;;5031748;28;20170;-72
2022/12/28 07:44:20;;;;;;;3.43;2.40;;;;;;;;;;5030853;28;20178;-71
2022/12/28 07:46:46;;;;;;;3.43;2.70;;;;;;;;;;5032090;28;20255;-72
2022/12/28 07:49:11;;;;;;;3.63;2.83;;;;;;;;;;5030166;28;20660;-72
2022/12/28 07:51:37;;;;;;;4.90;2.37;;;;;;;;;;5030827;28;20308;-72
2022/12/28 07:54:03;;;;;;;4.63;2.80;;;;;;;;;;5031343;28;20191;-72
2022/12/28 07:56:29;;;;;;;3.10;2.73;;;;;;;;;;5031382;28;20205;-71
2022/12/28 07:58:55;;;;;;;3.57;3.00;;;;;;;;;;5031469;28;20245;-71
2022/12/28 08:01:21;;;;;;;4.20;2.97;;;;;;;;;;5030608;28;20213;-72
2022/12/28 08:03:46;;;;;;;3.77;3.37;;;;;;;;;;5029322;28;20303;-72
2022/12/28 08:06:19;;;;;;;3.53;3.23;;;;;;;;;;5032208;28;20772;-71
2022/12/28 08:08:45;;;;;;;7.40;3.60;;;;;;;;;;5027808;28;20184;-72
2022/12/28 08:11:12;;;;;;;3.27;2.93;;;;;;;;;;5029108;28;20167;-72
2022/12/28 08:13:39;;;;;;;3.60;3.27;;;;;;;;;;5030671;28;20552;-72
2022/12/28 08:16:05;;;;;;;5.50;4.13;;;;;;;;;;5031131;28;20620;-72
2022/12/28 08:18:30;;;;;;;5.40;4.00;;;;;;;;;;5030655;28;20270;-72
2022/12/28 08:20:59;;;;;;;4.57;4.17;;;;;;;;;;5030088;28;20177;-72
2022/12/28 08:23:25;;;;;;;6.47;4.57;;;;;;;;;;5031032;28;20664;-72
2022/12/28 08:25:50;;;;;;;4.60;4.20;;;;;;;;;;5030102;28;20190;-72
2022/12/28 08:28:15;;;;;;;7.43;4.93;;;;;;;;;;5029750;28;20737;-71
2022/12/28 08:30:40;;;;;;;5.23;4.73;;;;;;;;;;5030254;28;20228;-72
2022/12/28 08:33:05;;;;;;;5.30;4.70;;;;;;;;;;5029378;28;20189;-72
2022/12/28 08:35:30;;;;;;;5.97;5.10;;;;;;;;;;5030539;28;20202;-72
2022/12/28 08:37:56;;;;;;;5.70;4.53;;;;;;;;;;5029719;28;20181;-72
2022/12/28 08:40:26;;;;;;;8.23;4.87;;;;;;;;;;5030505;28;20652;-72
2022/12/28 08:42:51;;;;;;;4.67;4.27;;;;;;;;;;5029001;28;20182;-72
2022/12/28 08:45:16;;;;;;;5.10;4.30;;;;;;;;;;5030365;28;20557;-72
2022/12/28 08:47:42;;;;;;;8.13;5.33;;;;;;;;;;5024820;28;20199;-72
2022/12/28 08:50:07;;;;;;;7.50;5.10;;;;;;;;;;5028648;28;20250;-72
2022/12/28 08:52:32;;;;;;;5.93;4.70;;;;;;;;;;5027867;28;20185;-72
2022/12/28 08:54:57;;;;;;;6.70;5.27;;;;;;;;;;5030047;28;20194;-71
2022/12/28 08:57:23;;;;;;;5.20;4.70;;;;;;;;;;5024113;28;20236;-72
2022/12/28 08:59:48;;;;;;;5.53;4.97;;;;;;;;;;5030182;28;20636;-72
2022/12/28 09:02:13;;;;;;;6.20;4.83;;;;;;;;;;5028723;28;20638;-72
2022/12/28 09:04:39;;;;;;;7.20;5.23;;;;;;;;;;5026780;28;20183;-72
2022/12/28 09:07:04;;;;;;;6.73;4.90;;;;;;;;;;5030312;28;20576;-72
2022/12/28 09:09:30;;;;;;;6.53;4.63;;;;;;;;;;5028280;28;20474;-72
2022/12/28 09:11:55;;;;;;;6.87;4.77;;;;;;;;;;5028547;28;20189;-72
2022/12/28 09:14:20;;;;;;;6.67;4.40;;;;;;;;;;5033664;28;20632;-72
2022/12/28 09:16:45;;;;;;;8.30;4.43;;;;;;;;;;5033023;28;20218;-72
2022/12/28 09:19:12;;;;;;;5.90;4.30;;;;;;;;;;5033941;28;20182;-72
2022/12/28 09:21:37;;;;;;;7.80;4.53;;;;;;;;;;5031371;28;20182;-72
2022/12/28 09:24:03;;;;;;;7.27;4.47;;;;;;;;;;5032514;28;20186;-72
2022/12/28 09:26:30;;;;;;;6.37;4.23;;;;;;;;;;5032766;28;20210;-72
2022/12/28 09:28:57;;;;;;;6.33;4.40;;;;;;;;;;5033655;28;20274;-72
2022/12/28 09:31:23;;;;;;;6.37;4.30;;;;;;;;;;5031730;28;20179;-72
2022/12/28 09:34:00;;;;;;;9.50;5.27;;;;;;;;;;5033708;28;20257;-72
2022/12/28 09:36:36;;;;;;;7.70;3.50;;;;;;;;;;5033928;28;20576;-72
2022/12/28 09:39:05;;;;;;;4.70;3.53;;;;;;;;;;5033422;28;20651;-72
2022/12/28 09:41:47;;;;;;;7.30;3.30;;;;;;;;;;5030982;28;20664;-72
2022/12/28 09:44:15;;;;;;;4.23;3.30;;;;;;;;;;5033742;28;20190;-72
2022/12/28 09:46:52;;;;;;;4.33;3.03;;;;;;;;;;5033691;28;20675;-72
2022/12/28 09:49:20;;;;;;;3.27;2.67;;;;;;;;;;5030250;28;20193;-72
2022/12/28 09:52:08;;;;;;;7.17;3.20;;;;;;;;;;5031784;28;20170;-72
2022/12/28 09:54:33;;;;;;;5.27;3.10;;;;;;;;;;5023490;28;20197;-72
2022/12/28 09:56:58;;;;;;;3.77;2.77;;;;;;;;;;5029302;28;20289;-72
2022/12/28 09:59:24;;;;;;;3.87;2.57;;;;;;;;;;5033353;28;20269;-72
2022/12/28 10:01:55;;;;;;;3.87;2.80;;;;;;;;;;5030121;28;20268;-72
2022/12/28 10:04:20;;;;;;;4.93;2.83;;;;;;;;;;5031538;28;20269;-72
2022/12/28 10:06:45;;;;;;;4.37;2.97;;;;;;;;;;5031404;28;20819;-72
2022/12/28 10:09:15;;;;;;;5.00;2.50;;;;;;;;;;5033041;28;20770;-72
2022/12/28 10:11:41;;;;;;;4.37;2.53;;;;;;;;;;5032043;28;20281;-72
2022/12/28 10:14:17;;;;;;;5.47;3.10;;;;;;;;;;5033141;28;20562;-73
2022/12/28 10:16:43;;;;;;;4.87;2.97;;;;;;;;;;5027940;28;20237;-72
2022/12/28 10:19:09;;;;;;;4.63;3.20;;;;;;;;;;5032818;28;20182;-72
2022/12/28 10:21:35;;;;;;;2.60;2.40;;;;;;;;;;5030386;28;20689;-72
2022/12/28 10:24:03;;;;;;;4.87;3.40;;;;;;;;;;5032995;28;20182;-72
2022/12/28 10:26:28;;;;;;;4.10;3.60;;;;;;;;;;5033003;28;20206;-72
2022/12/28 10:28:56;;;;;;;6.80;3.63;;;;;;;;;;5033001;28;20200;-73
2022/12/28 10:31:31;;;;;;;6.07;2.93;;;;;;;;;;5031785;28;20605;-72
2022/12/28 10:33:56;;;;;;;5.33;2.90;;;;;;;;;;5032714;28;20663;-72
2022/12/28 10:36:22;;;;;;;5.53;3.30;;;;;;;;;;5026971;28;20194;-72
2022/12/28 10:38:52;;;;;;;6.73;3.50;;;;;;;;;;5032942;28;20182;-72
2022/12/28 10:41:18;;;;;;;8.57;3.13;;;;;;;;;;5031732;28;20304;-73
2022/12/28 10:43:49;;;;;;;5.63;3.50;;;;;;;;;;5029159;28;20261;-72
2022/12/28 10:46:18;;;;;;;5.80;3.57;;;;;;;;;;5032094;28;20206;-72
2022/12/28 10:48:50;;;;;;;4.40;3.40;;;;;;;;;;5029536;28;20184;-73
2022/12/28 10:51:16;;;;;;;4.53;3.37;;;;;;;;;;5028050;28;20186;-72
2022/12/28 10:53:43;;;;;;;4.27;3.77;;;;;;;;;;5028827;28;20178;-73
2022/12/28 10:56:11;;;;;;;4.20;3.43;;;;;;;;;;5023672;28;20695;-72
2022/12/28 10:58:37;;;;;;;4.73;3.50;;;;;;;;;;5031728;28;20277;-72
2022/12/28 11:01:04;;;;;;;5.40;3.53;;;;;;;;;;5030588;28;20692;-72
2022/12/28 11:03:31;;;;;;;7.73;3.30;;;;;;;;;;5025205;28;20798;-72
2022/12/28 11:06:14;;;;;;;5.07;3.63;;;;;;;;;;5032118;28;20265;-72
2022/12/28 11:08:41;;;;;;;6.87;3.80;;;;;;;;;;5032281;28;20974;-72
2022/12/28 11:11:06;;;;;;;4.33;3.17;;;;;;;;;;5030963;28;20182;-73
2022/12/28 11:13:32;;;;;;;4.63;3.87;;;;;;;;;;5026076;28;20174;-72
2022/12/28 11:15:58;;;;;;;6.17;3.80;;;;;;;;;;5028033;28;20213;-72
2022/12/28 11:18:23;;;;;;;5.33;4.07;;;;;;;;;;5030312;28;20220;-72
2022/12/28 11:20:52;;;;;;;5.43;3.63;;;;;;;;;;5029333;28;20233;-72
2022/12/28 11:23:22;;;;;;;6.33;4.17;;;;;;;;;;5030268;28;20724;-72
2022/12/28 11:25:48;;;;;;;5.20;4.00;;;;;;;;;;5032011;28;20201;-72
2022/12/28 11:28:15;;;;;;;5.70;3.90;;;;;;;;;;5031836;28;20571;-72
2022/12/28 11:30:40;;;;;;;5.63;3.93;;;;;;;;;;5028598;28;20186;-72
2022/12/28 11:33:08;;;;;;;7.33;3.80;;;;;;;;;;5029811;28;20170;-72
2022/12/28 11:35:36;;;;;;;4.87;3.60;;;;;;;;;;5030099;28;20514;-72
2022/12/28 11:38:03;;;;;;;5.17;3.30;;;;;;;;;;5031609;28;20313;-72
2022/12/28 11:40:49;;;;;;;3.80;3.03;;;;;;;;;;5031583;28;20185;-72
2022/12/28 11:43:29;;;;;;;4.70;3.53;;;;;;;;;;5028588;28;20194;-72
2022/12/28 11:45:56;;;;;;;6.73;3.73;;;;;;;;;;5028041;28;20190;-72
2022/12/28 11:48:40;;;;;;;7.93;3.20;;;;;;;;;;5028737;28;20237;-72
2022/12/28 11:51:05;;;;;;;5.67;3.47;;;;;;;;;;5030115;28;20734;-72
2022/12/28 11:53:30;;;;;;;4.67;3.17;;;;;;;;;;5031620;28;20245;-72
2022/12/28 11:55:55;;;;;;;3.93;2.93;;;;;;;;;;5031367;28;20194;-73
2022/12/28 11:58:44;;;;;;;4.10;3.23;;;;;;;;;;5030180;28;20190;-72
2022/12/28 12:01:32;;;;;;;4.97;3.10;;;;;;;;;;5023865;28;20299;-73
2022/12/28 12:03:57;;;;;;;5.13;3.03;;;;;;;;;;5024273;28;20608;-72
2022/12/28 12:06:41;;;;;;;6.57;3.33;;;;;;;;;;5029796;28;20300;-72
2022/12/28 12:09:24;;;;;;;4.90;3.00;;;;;;;;;;5031681;28;20245;-73
2022/12/28 12:11:51;;;;;;;5.33;3.20;;;;;;;;;;5029656;28;20174;-73
2022/12/28 12:14:20;;;;;;;3.43;2.70;;;;;;;;;;5026642;28;20690;-72
2022/12/28 12:17:04;;;;;;;5.27;2.43;;;;;;;;;;5030770;28;20699;-72
2022/12/28 12:19:33;;;;;;;7.97;2.87;;;;;;;;;;5031100;28;20178;-72
2022/12/28 12:22:01;;;;;;;6.77;2.60;;;;;;;;;;5030294;28;20249;-72
2022/12/28 12:24:29;;;;;;;3.63;2.83;;;;;;;;;;5031158;28;20182;-72
2022/12/28 12:26:57;;;;;;;5.17;3.20;;;;;;;;;;5030163;28;20198;-72
2022/12/28 12:29:43;;;;;;;5.33;3.13;;;;;;;;;;5030905;28;20166;-72
2022/12/28 12:32:14;;;;;;;5.03;3.10;;;;;;;;;;5030623;28;20269;-73
2022/12/28 12:34:54;;;;;;;3.67;3.10;;;;;;;;;;5029686;28;20544;-72
2022/12/28 12:37:19;;;;;;;4.30;3.00;;;;;;;;;;5031143;28;20715;-72
2022/12/28 12:39:50;;;;;;;4.37;3.40;;;;;;;;;;5028809;28;20261;-72
2022/12/28 12:42:42;;;;;;;3.67;2.90;;;;;;;;;;5026267;28;20178;-72
2022/12/28 12:45:07;;;;;;;6.70;3.43;;;;;;;;;;5026440;28;20225;-72
2022/12/28 12:47:47;;;;;;;6.27;3.60;;;;;;;;;;5031906;28;20687;-72
2022/12/28 12:50:31;;;;;;;3.97;3.57;;;;;;;;;;5035117;28;20694;-72
2022/12/28 12:53:02;;;;;;;7.13;3.23;;;;;;;;;;5026100;28;20174;-72
2022/12/28 12:55:48;;;;;;;7.47;4.23;;;;;;;;;;5033193;28;20296;-72
2022/12/28 12:58:29;;;;;;;5.23;3.53;;;;;;;;;;5034974;28;20186;-72
2022/12/28 13:00:54;;;;;;;6.63;4.30;;;;;;;;;;5027596;28;20185;-72
2022/12/28 13:03:42;;;;;;;7.00;3.50;;;;;;;;;;5032146;28;20179;-72
2022/12/28 13:06:09;;;;;;;8.23;4.17;;;;;;;;;;5032913;28;20202;-72
2022/12/28 13:08:34;;;;;;;8.00;2.90;;;;;;;;;;5034556;28;20210;-72
2022/12/28 13:10:59;;;;;;;6.40;3.43;;;;;;;;;;5033494;28;20197;-72
2022/12/28 13:13:27;;;;;;;5.20;4.17;;;;;;;;;;5033165;28;20178;-72
2022/12/28 13:15:55;;;;;;;7.30;3.73;;;;;;;;;;5034708;28;20268;-72
2022/12/28 13:18:20;;;;;;;6.57;3.70;;;;;;;;;;5034153;28;20182;-72
2022/12/28 13:20:56;;;;;;;6.30;3.50;;;;;;;;;;5030788;28;20687;-72
2022/12/28 13:23:22;;;;;;;5.53;3.33;;;;;;;;;;5029059;28;20186;-72
2022/12/28 13:25:49;;;;;;;6.97;3.43;;;;;;;;;;5034204;28;20643;-72
2022/12/28 13:28:21;;;;;;;4.53;3.60;;;;;;;;;;5033712;28;20206;-72
2022/12/28 13:30:57;;;;;;;5.67;3.40;;;;;;;;;;5033363;28;20170;-72
2022/12/28 13:33:22;;;;;;;7.83;3.63;;;;;;;;;;5032510;28;20874;-72
2022/12/28 13:35:48;;;;;;;12.43;4.57;;;;;;;;;;5033774;28;20265;-72
2022/12/28 13:38:14;;;;;;;11.27;3.00;;;;;;;;;;5032348;28;20639;-72
2022/12/28 13:40:46;;;;;;;7.67;4.30;;;;;;;;;;5033723;28;20186;-73
2022/12/28 13:43:24;;;;;;;6.83;3.53;;;;;;;;;;5033529;28;20186;-72
2022/12/28 13:45:55;;;;;;;7.83;2.83;;;;;;;;;;5031993;28;20568;-72
2022/12/28 13:48:21;;;;;;;5.70;3.07;;;;;;;;;;5030727;28;20244;-72
2022/12/28 13:50:48;;;;;;;8.13;2.90;;;;;;;;;;5024041;28;20939;-72
2022/12/28 13:53:16;;;;;;;2.80;2.40;;;;;;;;;;5033789;28;20182;-72
2022/12/28 13:55:51;;;;;;;7.63;3.17;;;;;;;;;;5033856;28;20213;-72
2022/12/28 13:58:28;;;;;;;6.43;2.70;;;;;;;;;;5031365;28;20264;-72
2022/12/28 14:00:55;;;;;;;7.47;2.67;;;;;;;;;;5029811;28;20235;-72
2022/12/28 14:03:21;;;;;;;6.77;2.63;;;;;;;;;;5033581;28;20189;-72
2022/12/28 14:05:47;;;;;;;4.43;2.30;;;;;;;;;;5031149;28;20206;-72
2022/12/28 14:08:14;;;;;;;7.10;3.27;;;;;;;;;;5027815;28;20214;-72
2022/12/28 14:10:40;;;;;;;6.97;2.70;;;;;;;;;;5024348;28;20557;-72
2022/12/28 14:13:06;;;;;;;4.03;2.33;;;;;;;;;;5031612;28;20174;-72
2022/12/28 14:15:31;;;;;;;4.30;2.50;;;;;;;;;;5031922;28;20222;-72
2022/12/28 14:17:56;;;;;;;5.70;2.40;;;;;;;;;;5029388;28;20232;-72
2022/12/28 14:20:21;;;;;;;8.67;2.40;;;;;;;;;;5032764;28;20201;-72
2022/12/28 14:22:47;;;;;;;5.50;1.97;;;;;;;;;;5032165;28;20225;-72
2022/12/28 14:25:13;;;;;;;9.13;3.10;;;;;;;;;;5026993;28;21145;-72
2022/12/28 14:27:41;;;;;;;5.57;2.33;;;;;;;;;;5032461;28;20210;-72
2022/12/28 14:30:18;;;;;;;5.00;2.30;;;;;;;;;;5031937;28;20266;-72
2022/12/28 14:32:43;;;;;;;4.13;2.00;;;;;;;;;;5024500;28;20190;-72
2022/12/28 14:35:15;;;;;;;8.10;3.73;;;;;;;;;;5032881;28;20277;-72
2022/12/28 14:37:40;;;;;;;5.80;2.43;;;;;;;;;;5032777;28;20178;-72
2022/12/28 14:40:05;;;;;;;8.53;3.70;;;;;;;;;;5031197;28;20232;-72
2022/12/28 14:42:31;;;;;;;9.30;2.83;;;;;;;;;;5030418;28;20186;-72
2022/12/28 14:44:57;;;;;;;6.53;2.10;;;;;;;;;;5032437;28;20181;-72
2022/12/28 14:47:43;;;;;;;3.63;2.30;;;;;;;;;;5032668;28;20209;-72
2022/12/28 14:50:28;;;;;;;5.50;2.40;;;;;;;;;;5032070;28;21402;-72
2022/12/28 14:53:17;;;;;;;4.87;2.73;;;;;;;;;;5022689;28;20656;-72
2022/12/28 14:55:59;;;;;;;7.20;2.60;;;;;;;;;;5032868;28;20194;-72
2022/12/28 14:58:48;;;;;;;7.50;2.90;;;;;;;;;;5031070;28;20194;-72
2022/12/28 15:01:13;;;;;;;4.97;2.73;;;;;;;;;;5021615;28;20205;-72
2022/12/28 15:03:52;;;;;;;6.20;2.70;;;;;;;;;;5032175;28;20178;-72
2022/12/28 15:06:18;;;;;;;8.53;3.63;;;;;;;;;;5027864;28;20210;-72
2022/12/28 15:08:50;;;;;;;7.80;2.30;;;;;;;;;;5033544;28;20186;-72
2022/12/28 15:11:17;;;;;;;3.23;2.00;;;;;;;;;;5030875;28;20217;-72
2022/12/28 15:13:42;;;;;;;5.13;2.20;;;;;;;;;;5032225;28;20228;-72
2022/12/28 15:16:09;;;;;;;5.87;2.40;;;;;;;;;;5031147;28;20209;-72
2022/12/28 15:18:37;;;;;;;4.03;2.10;;;;;;;;;;5031756;28;20181;-71